sensor_id;sensor_type;location;lat;lon;timestamp;P1;durP1;ratioP1;P2;durP2;ratioP2
68126;SDS011;54931;52.098;21.006;2023-12-20T00:00:07;19.20;;;9.70;;
68126;SDS011;54931;52.098;21.006;2023-12-20T00:02:35;29.10;;;14.50;;
68126;SDS011;54931;52.098;21.006;2023-12-20T00:05:03;24.80;;;13.60;;
68126;SDS011;54931;52.098;21.006;2023-12-20T00:07:36;25.20;;;13.00;;
68126;SDS011;54931;52.098;21.006;2023-12-20T00:10:04;20.50;;;10.60;;
68126;SDS011;54931;52.098;21.006;2023-12-20T00:12:32;20.30;;;10.00;;
68126;SDS011;54931;52.098;21.006;2023-12-20T00:15:00;23.40;;;11.20;;
68126;SDS011;54931;52.098;21.006;2023-12-20T00:17:29;26.80;;;13.40;;
68126;SDS011;54931;52.098;21.006;2023-12-20T00:19:56;24.10;;;11.90;;
68126;SDS011;54931;52.098;21.006;2023-12-20T00:22:24;19.80;;;9.30;;
68126;SDS011;54931;52.098;21.006;2023-12-20T00:24:51;23.10;;;12.10;;
68126;SDS011;54931;52.098;21.006;2023-12-20T00:27:19;23.10;;;11.00;;
68126;SDS011;54931;52.098;21.006;2023-12-20T00:29:46;21.10;;;11.10;;
68126;SDS011;54931;52.098;21.006;2023-12-20T00:32:17;24.10;;;11.70;;
68126;SDS011;54931;52.098;21.006;2023-12-20T00:34:45;19.80;;;10.70;;
68126;SDS011;54931;52.098;21.006;2023-12-20T00:37:13;19.50;;;10.60;;
68126;SDS011;54931;52.098;21.006;2023-12-20T00:39:41;21.70;;;11.00;;
68126;SDS011;54931;52.098;21.006;2023-12-20T00:42:09;16.70;;;8.30;;
68126;SDS011;54931;52.098;21.006;2023-12-20T00:44:37;20.20;;;10.00;;
68126;SDS011;54931;52.098;21.006;2023-12-20T00:47:05;16.40;;;10.10;;
68126;SDS011;54931;52.098;21.006;2023-12-20T00:49:32;17.00;;;9.10;;
68126;SDS011;54931;52.098;21.006;2023-12-20T00:52:00;17.70;;;9.40;;
68126;SDS011;54931;52.098;21.006;2023-12-20T00:54:27;22.80;;;11.40;;
68126;SDS011;54931;52.098;21.006;2023-12-20T00:56:56;17.90;;;9.60;;
68126;SDS011;54931;52.098;21.006;2023-12-20T00:59:23;21.40;;;10.70;;
68126;SDS011;54931;52.098;21.006;2023-12-20T01:01:51;18.60;;;9.00;;
68126;SDS011;54931;52.098;21.006;2023-12-20T01:04:19;17.90;;;9.40;;
68126;SDS011;54931;52.098;21.006;2023-12-20T01:06:47;17.30;;;10.20;;
68126;SDS011;54931;52.098;21.006;2023-12-20T01:09:14;20.10;;;10.70;;
68126;SDS011;54931;52.098;21.006;2023-12-20T01:11:42;19.20;;;9.40;;
68126;SDS011;54931;52.098;21.006;2023-12-20T01:14:10;14.50;;;7.70;;
68126;SDS011;54931;52.098;21.006;2023-12-20T01:16:39;13.40;;;6.60;;
68126;SDS011;54931;52.098;21.006;2023-12-20T01:19:06;18.30;;;9.70;;
68126;SDS011;54931;52.098;21.006;2023-12-20T01:21:34;17.70;;;10.00;;
68126;SDS011;54931;52.098;21.006;2023-12-20T01:24:02;20.40;;;10.00;;
68126;SDS011;54931;52.098;21.006;2023-12-20T01:26:29;21.70;;;10.50;;
68126;SDS011;54931;52.098;21.006;2023-12-20T01:28:57;23.70;;;11.50;;
68126;SDS011;54931;52.098;21.006;2023-12-20T01:31:26;17.60;;;10.50;;
68126;SDS011;54931;52.098;21.006;2023-12-20T01:33:54;17.70;;;9.00;;
68126;SDS011;54931;52.098;21.006;2023-12-20T01:36:22;20.80;;;11.20;;
68126;SDS011;54931;52.098;21.006;2023-12-20T01:38:49;20.50;;;12.20;;
68126;SDS011;54931;52.098;21.006;2023-12-20T01:41:17;23.10;;;10.60;;
68126;SDS011;54931;52.098;21.006;2023-12-20T01:43:45;20.60;;;10.70;;
68126;SDS011;54931;52.098;21.006;2023-12-20T01:46:13;19.30;;;9.40;;
68126;SDS011;54931;52.098;21.006;2023-12-20T01:48:42;18.70;;;9.50;;
68126;SDS011;54931;52.098;21.006;2023-12-20T01:51:11;20.80;;;11.50;;
68126;SDS011;54931;52.098;21.006;2023-12-20T01:53:39;16.60;;;8.40;;
68126;SDS011;54931;52.098;21.006;2023-12-20T01:56:08;19.50;;;11.30;;
68126;SDS011;54931;52.098;21.006;2023-12-20T01:58:43;19.10;;;9.20;;
68126;SDS011;54931;52.098;21.006;2023-12-20T02:01:12;20.70;;;10.00;;
68126;SDS011;54931;52.098;21.006;2023-12-20T02:03:41;21.10;;;11.40;;
68126;SDS011;54931;52.098;21.006;2023-12-20T02:06:10;21.40;;;10.50;;
68126;SDS011;54931;52.098;21.006;2023-12-20T02:08:40;18.10;;;9.30;;
68126;SDS011;54931;52.098;21.006;2023-12-20T02:11:08;18.60;;;9.30;;
68126;SDS011;54931;52.098;21.006;2023-12-20T02:13:35;18.00;;;9.20;;
68126;SDS011;54931;52.098;21.006;2023-12-20T02:16:03;9.00;;;5.30;;
68126;SDS011;54931;52.098;21.006;2023-12-20T02:18:31;14.60;;;7.50;;
68126;SDS011;54931;52.098;21.006;2023-12-20T02:20:59;15.40;;;7.80;;
68126;SDS011;54931;52.098;21.006;2023-12-20T02:23:27;15.30;;;8.40;;
68126;SDS011;54931;52.098;21.006;2023-12-20T02:25:55;15.80;;;7.70;;
68126;SDS011;54931;52.098;21.006;2023-12-20T02:28:26;13.40;;;6.80;;
68126;SDS011;54931;52.098;21.006;2023-12-20T02:30:55;13.40;;;7.70;;
68126;SDS011;54931;52.098;21.006;2023-12-20T02:33:23;15.10;;;6.70;;
68126;SDS011;54931;52.098;21.006;2023-12-20T02:35:51;15.60;;;7.50;;
68126;SDS011;54931;52.098;21.006;2023-12-20T02:38:23;14.70;;;7.90;;
68126;SDS011;54931;52.098;21.006;2023-12-20T02:40:51;13.50;;;5.80;;
68126;SDS011;54931;52.098;21.006;2023-12-20T02:43:18;13.00;;;6.90;;
68126;SDS011;54931;52.098;21.006;2023-12-20T02:45:46;14.50;;;8.40;;
68126;SDS011;54931;52.098;21.006;2023-12-20T02:48:14;13.80;;;7.90;;
68126;SDS011;54931;52.098;21.006;2023-12-20T02:50:46;15.80;;;7.60;;
68126;SDS011;54931;52.098;21.006;2023-12-20T02:53:16;14.60;;;7.70;;
68126;SDS011;54931;52.098;21.006;2023-12-20T02:55:43;13.60;;;7.50;;
68126;SDS011;54931;52.098;21.006;2023-12-20T02:58:11;13.90;;;6.90;;
68126;SDS011;54931;52.098;21.006;2023-12-20T03:00:39;14.40;;;6.80;;
68126;SDS011;54931;52.098;21.006;2023-12-20T03:03:07;16.10;;;7.40;;
68126;SDS011;54931;52.098;21.006;2023-12-20T03:05:35;14.80;;;7.50;;
68126;SDS011;54931;52.098;21.006;2023-12-20T03:08:03;14.00;;;7.50;;
68126;SDS011;54931;52.098;21.006;2023-12-20T03:10:32;17.90;;;7.40;;
68126;SDS011;54931;52.098;21.006;2023-12-20T03:13:01;13.80;;;7.50;;
68126;SDS011;54931;52.098;21.006;2023-12-20T03:15:30;15.30;;;7.70;;
68126;SDS011;54931;52.098;21.006;2023-12-20T03:17:57;13.30;;;6.70;;
68126;SDS011;54931;52.098;21.006;2023-12-20T03:20:27;15.60;;;7.30;;
68126;SDS011;54931;52.098;21.006;2023-12-20T03:22:54;13.50;;;6.30;;
68126;SDS011;54931;52.098;21.006;2023-12-20T03:25:22;14.60;;;6.50;;
68126;SDS011;54931;52.098;21.006;2023-12-20T03:27:50;11.90;;;5.90;;
68126;SDS011;54931;52.098;21.006;2023-12-20T03:30:19;14.70;;;6.80;;
68126;SDS011;54931;52.098;21.006;2023-12-20T03:32:47;14.20;;;7.60;;
68126;SDS011;54931;52.098;21.006;2023-12-20T03:35:15;16.90;;;8.90;;
68126;SDS011;54931;52.098;21.006;2023-12-20T03:37:43;12.90;;;7.10;;
68126;SDS011;54931;52.098;21.006;2023-12-20T03:40:10;15.90;;;9.40;;
68126;SDS011;54931;52.098;21.006;2023-12-20T03:42:38;18.10;;;8.80;;
68126;SDS011;54931;52.098;21.006;2023-12-20T03:45:06;14.80;;;7.50;;
68126;SDS011;54931;52.098;21.006;2023-12-20T03:47:35;13.00;;;7.90;;
68126;SDS011;54931;52.098;21.006;2023-12-20T03:50:03;14.40;;;6.50;;
68126;SDS011;54931;52.098;21.006;2023-12-20T03:52:32;14.00;;;6.90;;
68126;SDS011;54931;52.098;21.006;2023-12-20T03:55:00;13.10;;;6.80;;
68126;SDS011;54931;52.098;21.006;2023-12-20T03:57:28;12.50;;;6.40;;
68126;SDS011;54931;52.098;21.006;2023-12-20T03:59:56;13.90;;;6.60;;
68126;SDS011;54931;52.098;21.006;2023-12-20T04:02:23;12.90;;;6.50;;
68126;SDS011;54931;52.098;21.006;2023-12-20T04:04:51;11.70;;;5.40;;
68126;SDS011;54931;52.098;21.006;2023-12-20T04:07:20;13.50;;;6.00;;
68126;SDS011;54931;52.098;21.006;2023-12-20T04:09:48;11.00;;;5.60;;
68126;SDS011;54931;52.098;21.006;2023-12-20T04:12:16;12.50;;;6.30;;
68126;SDS011;54931;52.098;21.006;2023-12-20T04:15:04;15.90;;;7.90;;
68126;SDS011;54931;52.098;21.006;2023-12-20T04:17:36;13.40;;;6.30;;
68126;SDS011;54931;52.098;21.006;2023-12-20T04:20:05;16.60;;;8.70;;
68126;SDS011;54931;52.098;21.006;2023-12-20T04:22:34;14.00;;;6.70;;
68126;SDS011;54931;52.098;21.006;2023-12-20T04:25:01;17.00;;;8.90;;
68126;SDS011;54931;52.098;21.006;2023-12-20T04:27:29;17.70;;;9.20;;
68126;SDS011;54931;52.098;21.006;2023-12-20T04:29:57;18.10;;;10.30;;
68126;SDS011;54931;52.098;21.006;2023-12-20T04:32:25;21.90;;;11.60;;
68126;SDS011;54931;52.098;21.006;2023-12-20T04:34:53;22.10;;;10.70;;
68126;SDS011;54931;52.098;21.006;2023-12-20T04:37:21;18.60;;;9.50;;
68126;SDS011;54931;52.098;21.006;2023-12-20T04:39:49;16.30;;;8.30;;
68126;SDS011;54931;52.098;21.006;2023-12-20T04:42:17;15.00;;;7.30;;
68126;SDS011;54931;52.098;21.006;2023-12-20T04:44:45;16.20;;;7.00;;
68126;SDS011;54931;52.098;21.006;2023-12-20T04:47:13;13.30;;;6.50;;
68126;SDS011;54931;52.098;21.006;2023-12-20T04:49:41;11.10;;;6.50;;
68126;SDS011;54931;52.098;21.006;2023-12-20T04:52:09;12.50;;;7.00;;
68126;SDS011;54931;52.098;21.006;2023-12-20T04:54:36;12.60;;;6.60;;
68126;SDS011;54931;52.098;21.006;2023-12-20T04:57:04;17.40;;;8.40;;
68126;SDS011;54931;52.098;21.006;2023-12-20T04:59:32;15.10;;;7.80;;
68126;SDS011;54931;52.098;21.006;2023-12-20T05:02:00;15.80;;;7.50;;
68126;SDS011;54931;52.098;21.006;2023-12-20T05:04:28;16.30;;;7.80;;
68126;SDS011;54931;52.098;21.006;2023-12-20T05:06:56;13.80;;;7.50;;
68126;SDS011;54931;52.098;21.006;2023-12-20T05:09:23;16.30;;;7.40;;
68126;SDS011;54931;52.098;21.006;2023-12-20T05:11:51;15.60;;;8.00;;
68126;SDS011;54931;52.098;21.006;2023-12-20T05:14:19;17.90;;;8.60;;
68126;SDS011;54931;52.098;21.006;2023-12-20T05:16:47;18.00;;;8.40;;
68126;SDS011;54931;52.098;21.006;2023-12-20T05:19:15;17.30;;;8.60;;
68126;SDS011;54931;52.098;21.006;2023-12-20T05:21:43;16.00;;;7.90;;
68126;SDS011;54931;52.098;21.006;2023-12-20T05:24:12;15.70;;;7.50;;
68126;SDS011;54931;52.098;21.006;2023-12-20T05:26:40;14.60;;;7.20;;
68126;SDS011;54931;52.098;21.006;2023-12-20T05:29:08;14.30;;;7.30;;
68126;SDS011;54931;52.098;21.006;2023-12-20T05:31:37;14.60;;;6.70;;
68126;SDS011;54931;52.098;21.006;2023-12-20T05:34:05;16.60;;;7.20;;
68126;SDS011;54931;52.098;21.006;2023-12-20T05:36:32;14.90;;;7.00;;
68126;SDS011;54931;52.098;21.006;2023-12-20T05:39:00;12.30;;;5.90;;
68126;SDS011;54931;52.098;21.006;2023-12-20T05:41:28;16.30;;;7.80;;
68126;SDS011;54931;52.098;21.006;2023-12-20T05:43:55;13.60;;;6.90;;
68126;SDS011;54931;52.098;21.006;2023-12-20T05:46:26;13.90;;;7.10;;
68126;SDS011;54931;52.098;21.006;2023-12-20T05:48:54;17.30;;;7.20;;
68126;SDS011;54931;52.098;21.006;2023-12-20T05:51:23;16.80;;;8.00;;
68126;SDS011;54931;52.098;21.006;2023-12-20T05:53:52;14.20;;;6.00;;
68126;SDS011;54931;52.098;21.006;2023-12-20T05:56:19;12.80;;;6.70;;
68126;SDS011;54931;52.098;21.006;2023-12-20T05:58:47;17.90;;;7.50;;
68126;SDS011;54931;52.098;21.006;2023-12-20T06:01:15;15.30;;;7.00;;
68126;SDS011;54931;52.098;21.006;2023-12-20T06:03:46;17.60;;;8.10;;
68126;SDS011;54931;52.098;21.006;2023-12-20T06:06:14;14.10;;;7.40;;
68126;SDS011;54931;52.098;21.006;2023-12-20T06:08:42;13.70;;;6.90;;
68126;SDS011;54931;52.098;21.006;2023-12-20T06:11:11;15.10;;;7.40;;
68126;SDS011;54931;52.098;21.006;2023-12-20T06:13:42;14.80;;;6.90;;
68126;SDS011;54931;52.098;21.006;2023-12-20T06:16:10;15.50;;;7.80;;
68126;SDS011;54931;52.098;21.006;2023-12-20T06:18:38;13.60;;;6.90;;
68126;SDS011;54931;52.098;21.006;2023-12-20T06:21:06;16.00;;;7.10;;
68126;SDS011;54931;52.098;21.006;2023-12-20T06:23:35;16.30;;;7.50;;
68126;SDS011;54931;52.098;21.006;2023-12-20T06:26:03;14.50;;;7.20;;
68126;SDS011;54931;52.098;21.006;2023-12-20T06:28:31;18.00;;;8.40;;
68126;SDS011;54931;52.098;21.006;2023-12-20T06:30:59;16.90;;;7.50;;
68126;SDS011;54931;52.098;21.006;2023-12-20T06:33:28;25.10;;;9.40;;
68126;SDS011;54931;52.098;21.006;2023-12-20T06:35:58;18.50;;;9.00;;
68126;SDS011;54931;52.098;21.006;2023-12-20T06:38:26;19.00;;;8.30;;
68126;SDS011;54931;52.098;21.006;2023-12-20T06:40:54;18.20;;;7.30;;
68126;SDS011;54931;52.098;21.006;2023-12-20T06:43:22;20.60;;;8.10;;
68126;SDS011;54931;52.098;21.006;2023-12-20T06:45:50;18.40;;;8.70;;
68126;SDS011;54931;52.098;21.006;2023-12-20T06:48:18;15.80;;;8.10;;
68126;SDS011;54931;52.098;21.006;2023-12-20T06:50:46;16.90;;;6.80;;
68126;SDS011;54931;52.098;21.006;2023-12-20T06:53:14;16.60;;;8.20;;
68126;SDS011;54931;52.098;21.006;2023-12-20T06:55:41;18.10;;;7.60;;
68126;SDS011;54931;52.098;21.006;2023-12-20T06:58:09;15.30;;;7.80;;
68126;SDS011;54931;52.098;21.006;2023-12-20T07:00:37;18.30;;;7.30;;
68126;SDS011;54931;52.098;21.006;2023-12-20T07:03:05;14.30;;;7.10;;
68126;SDS011;54931;52.098;21.006;2023-12-20T07:05:33;22.50;;;8.30;;
68126;SDS011;54931;52.098;21.006;2023-12-20T07:08:02;17.70;;;7.50;;
68126;SDS011;54931;52.098;21.006;2023-12-20T07:10:30;19.20;;;9.10;;
68126;SDS011;54931;52.098;21.006;2023-12-20T07:12:58;18.80;;;9.50;;
68126;SDS011;54931;52.098;21.006;2023-12-20T07:15:25;19.90;;;9.20;;
68126;SDS011;54931;52.098;21.006;2023-12-20T07:17:54;18.50;;;8.00;;
68126;SDS011;54931;52.098;21.006;2023-12-20T07:20:22;13.90;;;7.00;;
68126;SDS011;54931;52.098;21.006;2023-12-20T07:22:50;16.80;;;8.10;;
68126;SDS011;54931;52.098;21.006;2023-12-20T07:25:18;17.90;;;8.30;;
68126;SDS011;54931;52.098;21.006;2023-12-20T07:27:47;23.90;;;11.10;;
68126;SDS011;54931;52.098;21.006;2023-12-20T07:30:15;18.00;;;8.80;;
68126;SDS011;54931;52.098;21.006;2023-12-20T07:32:44;16.70;;;8.20;;
68126;SDS011;54931;52.098;21.006;2023-12-20T07:35:12;20.70;;;8.20;;
68126;SDS011;54931;52.098;21.006;2023-12-20T07:37:40;22.40;;;9.90;;
68126;SDS011;54931;52.098;21.006;2023-12-20T07:40:08;20.80;;;9.30;;
68126;SDS011;54931;52.098;21.006;2023-12-20T07:42:37;20.40;;;9.30;;
68126;SDS011;54931;52.098;21.006;2023-12-20T07:45:05;20.10;;;8.20;;
68126;SDS011;54931;52.098;21.006;2023-12-20T07:47:34;19.60;;;8.00;;
68126;SDS011;54931;52.098;21.006;2023-12-20T07:50:02;17.80;;;7.90;;
68126;SDS011;54931;52.098;21.006;2023-12-20T07:52:31;18.30;;;8.30;;
68126;SDS011;54931;52.098;21.006;2023-12-20T07:54:59;19.20;;;8.80;;
68126;SDS011;54931;52.098;21.006;2023-12-20T07:57:30;19.40;;;8.40;;
68126;SDS011;54931;52.098;21.006;2023-12-20T07:59:58;20.90;;;8.50;;
68126;SDS011;54931;52.098;21.006;2023-12-20T08:02:26;21.70;;;9.90;;
68126;SDS011;54931;52.098;21.006;2023-12-20T08:04:54;19.30;;;8.10;;
68126;SDS011;54931;52.098;21.006;2023-12-20T08:07:23;18.20;;;7.90;;
68126;SDS011;54931;52.098;21.006;2023-12-20T08:09:51;17.30;;;7.00;;
68126;SDS011;54931;52.098;21.006;2023-12-20T08:12:20;18.80;;;7.40;;
68126;SDS011;54931;52.098;21.006;2023-12-20T08:14:48;17.40;;;8.10;;
68126;SDS011;54931;52.098;21.006;2023-12-20T08:17:16;19.60;;;8.80;;
68126;SDS011;54931;52.098;21.006;2023-12-20T08:19:46;18.60;;;8.50;;
68126;SDS011;54931;52.098;21.006;2023-12-20T08:22:14;19.40;;;8.50;;
68126;SDS011;54931;52.098;21.006;2023-12-20T08:24:41;17.60;;;8.30;;
68126;SDS011;54931;52.098;21.006;2023-12-20T08:27:09;20.90;;;8.80;;
68126;SDS011;54931;52.098;21.006;2023-12-20T08:29:37;13.80;;;6.20;;
68126;SDS011;54931;52.098;21.006;2023-12-20T08:32:05;17.60;;;9.10;;
68126;SDS011;54931;52.098;21.006;2023-12-20T08:34:33;18.00;;;8.00;;
68126;SDS011;54931;52.098;21.006;2023-12-20T08:37:02;18.00;;;8.30;;
68126;SDS011;54931;52.098;21.006;2023-12-20T08:39:30;16.10;;;6.70;;
68126;SDS011;54931;52.098;21.006;2023-12-20T08:42:01;14.50;;;6.20;;
68126;SDS011;54931;52.098;21.006;2023-12-20T08:44:29;14.80;;;7.30;;
68126;SDS011;54931;52.098;21.006;2023-12-20T08:46:57;17.90;;;8.80;;
68126;SDS011;54931;52.098;21.006;2023-12-20T08:49:25;12.50;;;5.00;;
68126;SDS011;54931;52.098;21.006;2023-12-20T08:51:53;18.70;;;8.10;;
68126;SDS011;54931;52.098;21.006;2023-12-20T08:54:22;14.90;;;7.30;;
68126;SDS011;54931;52.098;21.006;2023-12-20T08:56:50;13.40;;;5.80;;
68126;SDS011;54931;52.098;21.006;2023-12-20T08:59:18;17.60;;;7.10;;
68126;SDS011;54931;52.098;21.006;2023-12-20T09:01:46;20.00;;;9.20;;
68126;SDS011;54931;52.098;21.006;2023-12-20T09:04:15;16.30;;;7.40;;
68126;SDS011;54931;52.098;21.006;2023-12-20T09:06:44;15.20;;;7.00;;
68126;SDS011;54931;52.098;21.006;2023-12-20T09:09:12;18.40;;;8.70;;
68126;SDS011;54931;52.098;21.006;2023-12-20T09:11:42;16.10;;;8.00;;
68126;SDS011;54931;52.098;21.006;2023-12-20T09:14:10;16.00;;;8.20;;
68126;SDS011;54931;52.098;21.006;2023-12-20T09:16:39;18.80;;;8.70;;
68126;SDS011;54931;52.098;21.006;2023-12-20T09:19:07;20.10;;;8.70;;
68126;SDS011;54931;52.098;21.006;2023-12-20T09:21:35;21.50;;;8.90;;
68126;SDS011;54931;52.098;21.006;2023-12-20T09:24:04;15.30;;;6.50;;
68126;SDS011;54931;52.098;21.006;2023-12-20T09:26:34;17.20;;;7.90;;
68126;SDS011;54931;52.098;21.006;2023-12-20T09:29:05;17.60;;;8.00;;
68126;SDS011;54931;52.098;21.006;2023-12-20T09:31:36;16.90;;;7.90;;
68126;SDS011;54931;52.098;21.006;2023-12-20T09:34:04;18.30;;;7.90;;
68126;SDS011;54931;52.098;21.006;2023-12-20T09:36:33;15.40;;;7.10;;
68126;SDS011;54931;52.098;21.006;2023-12-20T09:39:03;15.90;;;7.30;;
68126;SDS011;54931;52.098;21.006;2023-12-20T09:41:32;15.80;;;7.40;;
68126;SDS011;54931;52.098;21.006;2023-12-20T09:44:14;14.60;;;6.80;;
68126;SDS011;54931;52.098;21.006;2023-12-20T09:46:49;20.00;;;8.20;;
68126;SDS011;54931;52.098;21.006;2023-12-20T09:49:21;17.10;;;8.00;;
68126;SDS011;54931;52.098;21.006;2023-12-20T09:51:51;16.90;;;7.80;;
68126;SDS011;54931;52.098;21.006;2023-12-20T09:54:20;15.90;;;7.60;;
68126;SDS011;54931;52.098;21.006;2023-12-20T09:56:49;15.90;;;7.80;;
68126;SDS011;54931;52.098;21.006;2023-12-20T09:59:18;15.50;;;7.70;;
68126;SDS011;54931;52.098;21.006;2023-12-20T10:01:46;13.30;;;6.40;;
68126;SDS011;54931;52.098;21.006;2023-12-20T10:04:15;17.40;;;8.00;;
68126;SDS011;54931;52.098;21.006;2023-12-20T10:06:44;16.50;;;7.50;;
68126;SDS011;54931;52.098;21.006;2023-12-20T10:09:16;14.40;;;7.20;;
68126;SDS011;54931;52.098;21.006;2023-12-20T10:11:44;9.80;;;4.30;;
68126;SDS011;54931;52.098;21.006;2023-12-20T10:14:12;14.60;;;6.90;;
68126;SDS011;54931;52.098;21.006;2023-12-20T10:16:42;16.10;;;8.40;;
68126;SDS011;54931;52.098;21.006;2023-12-20T10:19:10;12.20;;;6.10;;
68126;SDS011;54931;52.098;21.006;2023-12-20T10:21:38;11.70;;;6.20;;
68126;SDS011;54931;52.098;21.006;2023-12-20T10:24:06;10.60;;;4.90;;
68126;SDS011;54931;52.098;21.006;2023-12-20T10:26:34;14.30;;;7.00;;
68126;SDS011;54931;52.098;21.006;2023-12-20T10:29:03;14.30;;;7.20;;
68126;SDS011;54931;52.098;21.006;2023-12-20T10:31:34;10.20;;;4.30;;
68126;SDS011;54931;52.098;21.006;2023-12-20T10:34:04;11.80;;;5.70;;
68126;SDS011;54931;52.098;21.006;2023-12-20T10:36:33;11.70;;;5.50;;
68126;SDS011;54931;52.098;21.006;2023-12-20T10:39:02;11.00;;;5.00;;
68126;SDS011;54931;52.098;21.006;2023-12-20T10:41:33;11.60;;;4.60;;
68126;SDS011;54931;52.098;21.006;2023-12-20T10:44:04;10.90;;;5.30;;
68126;SDS011;54931;52.098;21.006;2023-12-20T10:46:34;12.20;;;6.60;;
68126;SDS011;54931;52.098;21.006;2023-12-20T10:49:03;13.20;;;6.20;;
68126;SDS011;54931;52.098;21.006;2023-12-20T10:51:34;9.80;;;5.10;;
68126;SDS011;54931;52.098;21.006;2023-12-20T10:54:02;13.10;;;5.20;;
68126;SDS011;54931;52.098;21.006;2023-12-20T10:56:32;13.00;;;5.30;;
68126;SDS011;54931;52.098;21.006;2023-12-20T10:59:03;7.10;;;3.00;;
68126;SDS011;54931;52.098;21.006;2023-12-20T11:01:34;9.60;;;5.00;;
68126;SDS011;54931;52.098;21.006;2023-12-20T11:04:06;7.90;;;4.40;;
68126;SDS011;54931;52.098;21.006;2023-12-20T11:06:45;7.00;;;3.70;;
68126;SDS011;54931;52.098;21.006;2023-12-20T11:09:25;8.00;;;4.00;;
68126;SDS011;54931;52.098;21.006;2023-12-20T11:14:46;10.70;;;4.70;;
68126;SDS011;54931;52.098;21.006;2023-12-20T11:17:17;8.40;;;4.10;;
68126;SDS011;54931;52.098;21.006;2023-12-20T11:22:30;6.90;;;3.90;;
68126;SDS011;54931;52.098;21.006;2023-12-20T11:25:07;7.40;;;4.00;;
68126;SDS011;54931;52.098;21.006;2023-12-20T11:27:41;9.50;;;5.20;;
68126;SDS011;54931;52.098;21.006;2023-12-20T11:30:14;11.40;;;5.40;;
68126;SDS011;54931;52.098;21.006;2023-12-20T11:32:43;11.50;;;5.60;;
68126;SDS011;54931;52.098;21.006;2023-12-20T11:37:42;12.60;;;5.80;;
68126;SDS011;54931;52.098;21.006;2023-12-20T11:40:17;10.30;;;4.60;;
68126;SDS011;54931;52.098;21.006;2023-12-20T11:42:49;6.70;;;4.00;;
68126;SDS011;54931;52.098;21.006;2023-12-20T11:45:20;9.90;;;5.00;;
68126;SDS011;54931;52.098;21.006;2023-12-20T11:47:50;8.40;;;4.60;;
68126;SDS011;54931;52.098;21.006;2023-12-20T11:50:20;6.80;;;3.00;;
68126;SDS011;54931;52.098;21.006;2023-12-20T11:52:52;10.80;;;5.00;;
68126;SDS011;54931;52.098;21.006;2023-12-20T11:55:24;12.30;;;6.20;;
68126;SDS011;54931;52.098;21.006;2023-12-20T11:57:53;13.10;;;6.50;;
68126;SDS011;54931;52.098;21.006;2023-12-20T12:00:22;14.60;;;6.60;;
68126;SDS011;54931;52.098;21.006;2023-12-20T12:02:58;12.80;;;6.30;;
68126;SDS011;54931;52.098;21.006;2023-12-20T12:05:31;11.90;;;6.40;;
68126;SDS011;54931;52.098;21.006;2023-12-20T12:08:00;11.30;;;5.50;;
68126;SDS011;54931;52.098;21.006;2023-12-20T12:10:29;11.40;;;7.00;;
68126;SDS011;54931;52.098;21.006;2023-12-20T12:12:57;11.90;;;6.10;;
68126;SDS011;54931;52.098;21.006;2023-12-20T12:15:25;11.40;;;5.80;;
68126;SDS011;54931;52.098;21.006;2023-12-20T12:17:54;11.10;;;5.60;;
68126;SDS011;54931;52.098;21.006;2023-12-20T12:20:28;8.20;;;4.60;;
68126;SDS011;54931;52.098;21.006;2023-12-20T12:23:03;7.80;;;4.40;;
68126;SDS011;54931;52.098;21.006;2023-12-20T12:25:34;6.80;;;3.60;;
68126;SDS011;54931;52.098;21.006;2023-12-20T12:28:05;9.30;;;4.50;;
68126;SDS011;54931;52.098;21.006;2023-12-20T12:30:32;9.10;;;4.00;;
68126;SDS011;54931;52.098;21.006;2023-12-20T12:33:01;10.20;;;4.40;;
68126;SDS011;54931;52.098;21.006;2023-12-20T12:35:31;9.70;;;4.60;;
68126;SDS011;54931;52.098;21.006;2023-12-20T12:37:59;8.40;;;4.40;;
68126;SDS011;54931;52.098;21.006;2023-12-20T12:40:28;12.20;;;4.80;;
68126;SDS011;54931;52.098;21.006;2023-12-20T12:42:55;8.70;;;4.60;;
68126;SDS011;54931;52.098;21.006;2023-12-20T12:45:24;10.00;;;5.30;;
68126;SDS011;54931;52.098;21.006;2023-12-20T12:47:54;6.90;;;3.90;;
68126;SDS011;54931;52.098;21.006;2023-12-20T12:50:22;7.50;;;4.30;;
68126;SDS011;54931;52.098;21.006;2023-12-20T12:52:50;8.60;;;4.20;;
68126;SDS011;54931;52.098;21.006;2023-12-20T12:55:18;6.30;;;2.70;;
68126;SDS011;54931;52.098;21.006;2023-12-20T12:57:47;9.80;;;4.40;;
68126;SDS011;54931;52.098;21.006;2023-12-20T13:00:15;5.90;;;3.50;;
68126;SDS011;54931;52.098;21.006;2023-12-20T13:02:43;9.90;;;5.40;;
68126;SDS011;54931;52.098;21.006;2023-12-20T13:05:11;13.40;;;5.80;;
68126;SDS011;54931;52.098;21.006;2023-12-20T13:07:39;13.50;;;6.30;;
68126;SDS011;54931;52.098;21.006;2023-12-20T13:10:07;11.50;;;5.80;;
68126;SDS011;54931;52.098;21.006;2023-12-20T13:12:36;11.00;;;6.40;;
68126;SDS011;54931;52.098;21.006;2023-12-20T13:15:04;4.50;;;2.90;;
68126;SDS011;54931;52.098;21.006;2023-12-20T13:17:32;15.10;;;5.70;;
68126;SDS011;54931;52.098;21.006;2023-12-20T13:20:00;11.40;;;6.20;;
68126;SDS011;54931;52.098;21.006;2023-12-20T13:22:29;11.90;;;6.10;;
68126;SDS011;54931;52.098;21.006;2023-12-20T13:24:57;16.80;;;6.40;;
68126;SDS011;54931;52.098;21.006;2023-12-20T13:27:25;14.00;;;6.40;;
68126;SDS011;54931;52.098;21.006;2023-12-20T13:29:53;14.70;;;5.90;;
68126;SDS011;54931;52.098;21.006;2023-12-20T13:32:21;19.90;;;7.80;;
68126;SDS011;54931;52.098;21.006;2023-12-20T13:34:49;21.80;;;10.10;;
68126;SDS011;54931;52.098;21.006;2023-12-20T13:37:18;22.20;;;9.10;;
68126;SDS011;54931;52.098;21.006;2023-12-20T13:39:46;13.70;;;6.60;;
68126;SDS011;54931;52.098;21.006;2023-12-20T13:42:14;14.40;;;7.20;;
68126;SDS011;54931;52.098;21.006;2023-12-20T13:44:42;18.00;;;6.70;;
68126;SDS011;54931;52.098;21.006;2023-12-20T13:47:11;14.80;;;7.70;;
68126;SDS011;54931;52.098;21.006;2023-12-20T13:49:38;15.70;;;8.20;;
68126;SDS011;54931;52.098;21.006;2023-12-20T13:52:07;16.30;;;7.50;;
68126;SDS011;54931;52.098;21.006;2023-12-20T13:54:35;14.30;;;6.00;;
68126;SDS011;54931;52.098;21.006;2023-12-20T13:57:04;14.00;;;7.10;;
68126;SDS011;54931;52.098;21.006;2023-12-20T13:59:32;17.20;;;8.00;;
68126;SDS011;54931;52.098;21.006;2023-12-20T14:02:00;12.00;;;5.70;;
68126;SDS011;54931;52.098;21.006;2023-12-20T14:04:31;13.20;;;7.70;;
68126;SDS011;54931;52.098;21.006;2023-12-20T14:06:59;13.70;;;6.80;;
68126;SDS011;54931;52.098;21.006;2023-12-20T14:09:27;17.90;;;7.50;;
68126;SDS011;54931;52.098;21.006;2023-12-20T14:11:55;18.10;;;8.20;;
68126;SDS011;54931;52.098;21.006;2023-12-20T14:14:23;14.40;;;6.30;;
68126;SDS011;54931;52.098;21.006;2023-12-20T14:16:51;19.80;;;8.90;;
68126;SDS011;54931;52.098;21.006;2023-12-20T14:19:19;18.40;;;7.10;;
68126;SDS011;54931;52.098;21.006;2023-12-20T14:21:48;16.40;;;6.70;;
68126;SDS011;54931;52.098;21.006;2023-12-20T14:24:15;17.20;;;9.50;;
68126;SDS011;54931;52.098;21.006;2023-12-20T14:26:43;15.10;;;6.30;;
68126;SDS011;54931;52.098;21.006;2023-12-20T14:29:11;22.20;;;8.30;;
68126;SDS011;54931;52.098;21.006;2023-12-20T14:31:39;16.20;;;7.80;;
68126;SDS011;54931;52.098;21.006;2023-12-20T14:34:31;15.70;;;7.20;;
68126;SDS011;54931;52.098;21.006;2023-12-20T14:37:00;16.40;;;7.20;;